Time;durP1;ratioP1;P1;durP2;ratioP2;P2;SDS_P1;SDS_P2;PMS_P1;PMS_P2;Temp;Humidity;BMP_temperature;BMP_pressure;BME280_temperature;BME280_humidity;BME280_pressure;Samples;Min_cycle;Max_cycle;Signal;HPM_P1;HPM_P2
2023/04/10 00:01:41;;;;;;;11.70;5.28;;;;;;;;;;5071530;28;20100;-79
2023/04/10 00:04:07;;;;;;;10.10;5.50;;;;;;;;;;5068263;28;20194;-76
2023/04/10 00:06:32;;;;;;;12.88;5.32;;;;;;;;;;5068611;28;20532;-80
2023/04/10 00:08:58;;;;;;;11.68;5.60;;;;;;;;;;5068809;28;20038;-79
2023/04/10 00:11:24;;;;;;;11.02;5.68;;;;;;;;;;5069868;28;20532;-76
2023/04/10 00:13:50;;;;;;;10.43;5.85;;;;;;;;;;5067042;28;20056;-79
2023/04/10 00:16:15;;;;;;;9.93;5.63;;;;;;;;;;5067662;28;20056;-80
2023/04/10 00:18:41;;;;;;;8.35;5.25;;;;;;;;;;5067403;28;20032;-80
2023/04/10 00:21:06;;;;;;;12.48;6.82;;;;;;;;;;5069365;28;20057;-77
2023/04/10 00:23:33;;;;;;;8.75;5.15;;;;;;;;;;5056741;28;20031;-78
2023/04/10 00:25:59;;;;;;;10.98;6.30;;;;;;;;;;5064745;28;20043;-79
2023/04/10 00:28:24;;;;;;;8.55;5.45;;;;;;;;;;5067310;28;20089;-79
2023/04/10 00:30:49;;;;;;;9.32;6.10;;;;;;;;;;5066663;28;20028;-80
2023/04/10 00:33:15;;;;;;;10.57;6.38;;;;;;;;;;5065505;28;20029;-79
2023/04/10 00:35:40;;;;;;;8.27;4.90;;;;;;;;;;5065698;28;20100;-78
2023/04/10 00:38:05;;;;;;;9.43;5.55;;;;;;;;;;5065668;28;20051;-78
2023/04/10 00:40:31;;;;;;;9.07;5.75;;;;;;;;;;5069540;28;20029;-79
2023/04/10 00:42:56;;;;;;;12.45;5.90;;;;;;;;;;5065260;28;20486;-78
2023/04/10 00:45:22;;;;;;;9.27;5.53;;;;;;;;;;5064900;28;20029;-78
2023/04/10 00:47:47;;;;;;;9.65;5.60;;;;;;;;;;5065236;28;20453;-79
2023/04/10 00:50:12;;;;;;;9.52;5.50;;;;;;;;;;5067962;28;20028;-78
2023/04/10 00:52:38;;;;;;;9.00;5.43;;;;;;;;;;5071085;28;20059;-80
2023/04/10 00:55:04;;;;;;;8.75;5.40;;;;;;;;;;5069527;28;20028;-80
2023/04/10 00:57:31;;;;;;;10.82;5.47;;;;;;;;;;5070500;28;20032;-79
2023/04/10 00:59:56;;;;;;;9.05;5.47;;;;;;;;;;5072520;28;20050;-79
2023/04/10 01:02:22;;;;;;;15.85;6.88;;;;;;;;;;5076053;28;20029;-80
2023/04/10 01:04:47;;;;;;;18.52;7.65;;;;;;;;;;5071883;28;20029;-78
2023/04/10 01:07:57;;;;;;;31.20;10.45;;;;;;;;;;5073011;28;20028;-79
2023/04/10 01:10:37;;;;;;;17.60;7.47;;;;;;;;;;5071867;28;20036;-79
2023/04/10 01:13:23;;;;;;;33.90;12.38;;;;;;;;;;5071696;28;20033;-83
2023/04/10 01:16:29;;;;;;;16.38;7.40;;;;;;;;;;5069708;28;20043;-79
2023/04/10 01:19:05;;;;;;;11.77;6.32;;;;;;;;;;5068945;28;20184;-80
2023/04/10 01:21:35;;;;;;;11.85;6.32;;;;;;;;;;5070690;28;20052;-79
2023/04/10 01:24:06;;;;;;;9.52;5.53;;;;;;;;;;5070371;28;20048;-79
2023/04/10 01:26:43;;;;;;;8.73;5.55;;;;;;;;;;5069346;28;20024;-79
2023/04/10 01:29:13;;;;;;;8.95;4.88;;;;;;;;;;5072048;28;20058;-78
2023/04/10 01:31:52;;;;;;;7.28;5.00;;;;;;;;;;5070400;28;20036;-78
2023/04/10 01:34:24;;;;;;;8.98;5.15;;;;;;;;;;5071104;28;20078;-78
2023/04/10 01:36:58;;;;;;;11.57;6.38;;;;;;;;;;5069306;28;20029;-79
2023/04/10 01:39:26;;;;;;;10.32;5.45;;;;;;;;;;5067734;28;20150;-78
2023/04/10 01:41:53;;;;;;;6.82;4.22;;;;;;;;;;5072056;28;20119;-80
2023/04/10 01:44:24;;;;;;;12.30;5.68;;;;;;;;;;5072514;28;20021;-78
2023/04/10 01:46:51;;;;;;;11.05;5.72;;;;;;;;;;5069911;28;20043;-78
2023/04/10 01:49:17;;;;;;;12.18;6.03;;;;;;;;;;5069321;28;20040;-79
2023/04/10 01:51:44;;;;;;;11.93;6.32;;;;;;;;;;5070753;28;20035;-79
2023/04/10 01:54:09;;;;;;;10.00;5.80;;;;;;;;;;5067428;28;20067;-79
2023/04/10 01:56:35;;;;;;;9.63;5.97;;;;;;;;;;5072940;28;20036;-80
2023/04/10 01:59:02;;;;;;;13.73;6.50;;;;;;;;;;5072587;28;20036;-78
2023/04/10 02:01:28;;;;;;;10.98;6.32;;;;;;;;;;5069637;28;20048;-79
2023/04/10 02:03:53;;;;;;;10.40;6.32;;;;;;;;;;5068342;28;20032;-79
2023/04/10 02:06:44;;;;;;;11.18;6.45;;;;;;;;;;5068666;28;20036;-79
2023/04/10 02:09:24;;;;;;;9.93;6.30;;;;;;;;;;5068294;28;20043;-79
2023/04/10 02:12:06;;;;;;;10.93;5.63;;;;;;;;;;5069717;28;20158;-79
2023/04/10 02:14:35;;;;;;;10.55;6.05;;;;;;;;;;5068344;28;20043;-77
2023/04/10 02:17:01;;;;;;;14.75;6.97;;;;;;;;;;5069791;28;20056;-80
2023/04/10 02:19:29;;;;;;;8.90;5.65;;;;;;;;;;5068470;28;20036;-79
2023/04/10 02:21:56;;;;;;;15.10;7.00;;;;;;;;;;5069504;28;20438;-79
2023/04/10 02:24:22;;;;;;;9.07;5.82;;;;;;;;;;5070112;28;20107;-79
2023/04/10 02:26:49;;;;;;;17.95;6.00;;;;;;;;;;5069670;28;20140;-79
2023/04/10 02:29:16;;;;;;;9.05;5.55;;;;;;;;;;5064052;28;20203;-79
2023/04/10 02:31:41;;;;;;;11.95;6.35;;;;;;;;;;5065109;28;20048;-78
2023/04/10 02:34:07;;;;;;;7.90;5.10;;;;;;;;;;5064190;28;20048;-78
2023/04/10 02:36:34;;;;;;;10.35;5.22;;;;;;;;;;5064699;28;20159;-77
2023/04/10 02:38:59;;;;;;;9.05;5.35;;;;;;;;;;5067108;28;21304;-77
2023/04/10 02:41:25;;;;;;;8.30;5.10;;;;;;;;;;5069001;28;20039;-81
2023/04/10 02:43:51;;;;;;;12.23;5.68;;;;;;;;;;5064671;28;20522;-80
2023/04/10 02:46:16;;;;;;;11.50;5.43;;;;;;;;;;5067557;28;20036;-80
2023/04/10 02:48:41;;;;;;;9.40;4.88;;;;;;;;;;5064921;28;20124;-80
2023/04/10 02:51:07;;;;;;;12.38;5.40;;;;;;;;;;5068768;28;20034;-79
2023/04/10 02:53:32;;;;;;;9.32;5.35;;;;;;;;;;5066764;28;20369;-79
2023/04/10 02:55:58;;;;;;;11.43;6.07;;;;;;;;;;5067157;28;20115;-79
2023/04/10 02:58:23;;;;;;;12.23;6.80;;;;;;;;;;5067861;28;20124;-79
2023/04/10 03:00:50;;;;;;;11.80;6.05;;;;;;;;;;5068337;28;20032;-80
2023/04/10 03:03:17;;;;;;;8.02;5.95;;;;;;;;;;5080129;28;20080;-78
2023/04/10 03:05:45;;;;;;;11.15;5.80;;;;;;;;;;5081997;28;20020;-78
2023/04/10 03:08:11;;;;;;;14.18;7.05;;;;;;;;;;5079227;28;20091;-78
2023/04/10 03:10:36;;;;;;;12.32;6.25;;;;;;;;;;5072905;28;20032;-81
2023/04/10 03:13:01;;;;;;;11.27;6.22;;;;;;;;;;5070600;28;20389;-78
2023/04/10 03:15:27;;;;;;;9.55;5.97;;;;;;;;;;5067843;28;21062;-81
2023/04/10 03:17:52;;;;;;;10.07;5.88;;;;;;;;;;5068311;28;20315;-80
2023/04/10 03:20:17;;;;;;;10.10;5.40;;;;;;;;;;5067064;28;20054;-79
2023/04/10 03:22:43;;;;;;;11.73;6.38;;;;;;;;;;5068617;28;20525;-79
2023/04/10 03:25:09;;;;;;;10.85;6.35;;;;;;;;;;5066894;28;20092;-79
2023/04/10 03:27:34;;;;;;;9.40;6.03;;;;;;;;;;5069126;28;20686;-79
2023/04/10 03:30:01;;;;;;;10.82;5.75;;;;;;;;;;5068810;28;20033;-80
2023/04/10 03:32:29;;;;;;;12.52;6.45;;;;;;;;;;5069658;28;20033;-80
2023/04/10 03:34:56;;;;;;;9.88;5.93;;;;;;;;;;5067599;28;20451;-79
2023/04/10 03:37:21;;;;;;;10.52;5.72;;;;;;;;;;5067868;28;20067;-78
2023/04/10 03:39:46;;;;;;;12.77;6.50;;;;;;;;;;5067741;28;20037;-80
2023/04/10 03:42:12;;;;;;;10.45;6.50;;;;;;;;;;5069163;28;20035;-80
2023/04/10 03:44:37;;;;;;;10.85;6.05;;;;;;;;;;5068487;28;20404;-80
2023/04/10 03:47:02;;;;;;;10.15;5.75;;;;;;;;;;5064612;28;20031;-79
2023/04/10 03:49:28;;;;;;;8.85;5.93;;;;;;;;;;5068139;28;20032;-79
2023/04/10 03:51:53;;;;;;;10.95;6.20;;;;;;;;;;5067684;28;20035;-81
2023/04/10 03:54:19;;;;;;;9.20;5.80;;;;;;;;;;5068757;28;20080;-79
2023/04/10 03:56:44;;;;;;;11.23;5.53;;;;;;;;;;5066999;28;20234;-79
2023/04/10 03:59:09;;;;;;;9.55;5.80;;;;;;;;;;5068764;28;20992;-81
2023/04/10 04:01:35;;;;;;;11.73;5.97;;;;;;;;;;5066698;28;20025;-79
2023/04/10 04:04:00;;;;;;;9.45;5.90;;;;;;;;;;5067018;28;20538;-80
2023/04/10 04:06:26;;;;;;;7.97;5.90;;;;;;;;;;5067942;28;20047;-80
2023/04/10 04:08:51;;;;;;;11.70;5.88;;;;;;;;;;5067554;28;20101;-80
2023/04/10 04:11:17;;;;;;;9.82;5.60;;;;;;;;;;5066693;28;20064;-81
2023/04/10 04:13:42;;;;;;;10.82;6.32;;;;;;;;;;5066936;28;20051;-78
2023/04/10 04:16:08;;;;;;;7.50;5.40;;;;;;;;;;5067158;28;20028;-79
2023/04/10 04:18:34;;;;;;;12.88;6.30;;;;;;;;;;5067049;28;20040;-79
2023/04/10 04:20:59;;;;;;;10.40;5.40;;;;;;;;;;5066811;28;20105;-81
2023/04/10 04:23:24;;;;;;;12.63;6.40;;;;;;;;;;5064175;28;20051;-80
2023/04/10 04:25:51;;;;;;;17.67;6.15;;;;;;;;;;5066173;28;20527;-79
2023/04/10 04:28:17;;;;;;;10.57;6.15;;;;;;;;;;5067734;28;20439;-80
2023/04/10 04:30:42;;;;;;;11.60;6.13;;;;;;;;;;5067277;28;20040;-80
2023/04/10 04:33:08;;;;;;;10.18;6.28;;;;;;;;;;5068909;28;20124;-80
2023/04/10 04:35:33;;;;;;;9.43;5.53;;;;;;;;;;5071240;28;20028;-80
2023/04/10 04:37:58;;;;;;;7.05;5.47;;;;;;;;;;5069608;28;20031;-77
2023/04/10 04:40:24;;;;;;;9.48;5.65;;;;;;;;;;5066641;28;20056;-80
2023/04/10 04:42:49;;;;;;;12.43;6.43;;;;;;;;;;5067871;28;20304;-80
2023/04/10 04:45:14;;;;;;;9.77;5.85;;;;;;;;;;5069389;28;20028;-79
2023/04/10 04:47:40;;;;;;;7.68;4.88;;;;;;;;;;5070007;28;20057;-79
2023/04/10 04:50:06;;;;;;;13.52;6.70;;;;;;;;;;5071692;28;20104;-79
2023/04/10 04:52:34;;;;;;;12.30;5.72;;;;;;;;;;5071366;28;20033;-80
2023/04/10 04:54:59;;;;;;;11.18;5.60;;;;;;;;;;5076056;28;21335;-80
2023/04/10 04:57:24;;;;;;;10.90;5.80;;;;;;;;;;5070784;28;20063;-77
2023/04/10 04:59:50;;;;;;;12.68;6.43;;;;;;;;;;5069205;28;20044;-80
2023/04/10 05:02:15;;;;;;;13.18;5.78;;;;;;;;;;5068654;28;20047;-79
2023/04/10 05:04:41;;;;;;;13.38;7.18;;;;;;;;;;5070930;28;20043;-81
2023/04/10 05:07:06;;;;;;;12.60;6.70;;;;;;;;;;5068727;28;20063;-79
2023/04/10 05:09:31;;;;;;;12.38;7.28;;;;;;;;;;5068193;28;20033;-80
2023/04/10 05:11:57;;;;;;;11.00;6.35;;;;;;;;;;5070537;28;20056;-80
2023/04/10 05:14:22;;;;;;;12.23;7.22;;;;;;;;;;5079365;28;20071;-76
2023/04/10 05:16:48;;;;;;;13.85;6.93;;;;;;;;;;5085784;28;20096;-79
2023/04/10 05:19:13;;;;;;;12.88;6.85;;;;;;;;;;5067975;28;20028;-80
2023/04/10 05:21:39;;;;;;;11.65;6.90;;;;;;;;;;5069076;28;20075;-79
2023/04/10 05:24:04;;;;;;;13.38;7.03;;;;;;;;;;5071037;28;20038;-79
2023/04/10 05:26:30;;;;;;;14.35;7.25;;;;;;;;;;5066320;28;20130;-79
2023/04/10 05:28:55;;;;;;;14.18;6.93;;;;;;;;;;5066837;28;20038;-79
2023/04/10 05:31:20;;;;;;;10.05;6.43;;;;;;;;;;5068809;28;20094;-80
2023/04/10 05:33:46;;;;;;;11.43;6.95;;;;;;;;;;5061655;28;20103;-80
2023/04/10 05:36:11;;;;;;;10.40;6.78;;;;;;;;;;5063880;28;20787;-78
2023/04/10 05:38:37;;;;;;;13.57;6.80;;;;;;;;;;5070245;28;21216;-81
2023/04/10 05:41:02;;;;;;;14.70;8.63;;;;;;;;;;5069356;28;20028;-79
2023/04/10 05:43:27;;;;;;;11.85;7.28;;;;;;;;;;5069840;28;20116;-79
2023/04/10 05:45:53;;;;;;;13.13;7.35;;;;;;;;;;5070459;28;20150;-80
2023/04/10 05:48:18;;;;;;;14.30;7.10;;;;;;;;;;5068639;28;20060;-80
2023/04/10 05:50:43;;;;;;;11.48;6.95;;;;;;;;;;5071710;28;20055;-80
2023/04/10 05:53:12;;;;;;;14.93;7.88;;;;;;;;;;5073157;28;20036;-80
2023/04/10 05:55:38;;;;;;;15.85;7.75;;;;;;;;;;5069854;28;20109;-79
2023/04/10 05:58:03;;;;;;;10.38;6.68;;;;;;;;;;5071943;28;20044;-80
2023/04/10 06:00:28;;;;;;;12.23;7.13;;;;;;;;;;5070260;28;20043;-80
2023/04/10 06:02:54;;;;;;;13.57;6.35;;;;;;;;;;5071505;28;20123;-80
2023/04/10 06:05:20;;;;;;;12.63;6.88;;;;;;;;;;5071945;28;20028;-81
2023/04/10 06:07:45;;;;;;;12.52;6.75;;;;;;;;;;5068565;28;20039;-82
2023/04/10 06:10:10;;;;;;;11.57;6.68;;;;;;;;;;5069417;28;20024;-81
2023/04/10 06:12:36;;;;;;;10.10;6.63;;;;;;;;;;5069561;28;20080;-80
2023/04/10 06:15:01;;;;;;;11.05;6.20;;;;;;;;;;5068698;28;20031;-80
2023/04/10 06:17:27;;;;;;;11.95;7.28;;;;;;;;;;5068326;28;20065;-79
2023/04/10 06:19:52;;;;;;;13.07;7.07;;;;;;;;;;5068840;28;20043;-80
2023/04/10 06:22:18;;;;;;;15.60;7.35;;;;;;;;;;5069445;28;20040;-80
2023/04/10 06:24:43;;;;;;;12.82;7.35;;;;;;;;;;5066679;28;20013;-80
2023/04/10 06:27:08;;;;;;;13.20;6.50;;;;;;;;;;5067067;28;20063;-80
2023/04/10 06:29:34;;;;;;;10.65;6.05;;;;;;;;;;5066402;28;20503;-79
2023/04/10 06:31:59;;;;;;;13.45;6.80;;;;;;;;;;5069800;28;20058;-80
2023/04/10 06:34:25;;;;;;;11.45;6.60;;;;;;;;;;5068156;28;20028;-79
2023/04/10 06:36:50;;;;;;;12.73;6.60;;;;;;;;;;5065107;28;20101;-79
2023/04/10 06:39:16;;;;;;;11.10;7.38;;;;;;;;;;5067013;28;20590;-81
2023/04/10 06:41:41;;;;;;;11.65;7.32;;;;;;;;;;5066576;28;20026;-80
2023/04/10 06:44:07;;;;;;;11.27;6.07;;;;;;;;;;5068836;28;20063;-79
2023/04/10 06:46:32;;;;;;;13.18;7.47;;;;;;;;;;5065746;28;20081;-79
2023/04/10 06:48:57;;;;;;;11.85;7.05;;;;;;;;;;5067659;28;20032;-79
2023/04/10 06:51:23;;;;;;;10.38;6.15;;;;;;;;;;5063984;28;20045;-79
2023/04/10 06:53:48;;;;;;;9.02;6.00;;;;;;;;;;5065452;28;20032;-79
2023/04/10 06:56:14;;;;;;;9.82;6.57;;;;;;;;;;5062166;28;20512;-80
2023/04/10 06:58:40;;;;;;;9.10;6.07;;;;;;;;;;5061690;28;20033;-79
2023/04/10 07:01:05;;;;;;;8.38;6.15;;;;;;;;;;5065858;28;20028;-79
2023/04/10 07:03:31;;;;;;;9.15;5.68;;;;;;;;;;5063975;28;20028;-79
2023/04/10 07:05:57;;;;;;;7.80;5.15;;;;;;;;;;5065014;28;20029;-79
2023/04/10 07:08:22;;;;;;;7.72;5.57;;;;;;;;;;5066235;28;20054;-78
2023/04/10 07:10:47;;;;;;;8.70;5.80;;;;;;;;;;5066290;28;20086;-79
2023/04/10 07:13:13;;;;;;;8.57;6.15;;;;;;;;;;5063172;28;20039;-81
2023/04/10 07:15:38;;;;;;;8.50;5.28;;;;;;;;;;5064334;28;20044;-77
2023/04/10 07:18:04;;;;;;;7.53;5.05;;;;;;;;;;5066617;28;20124;-80
2023/04/10 07:20:31;;;;;;;7.63;5.15;;;;;;;;;;5068182;28;20020;-79
2023/04/10 07:22:56;;;;;;;8.48;5.55;;;;;;;;;;5068010;28;20037;-80
2023/04/10 07:25:21;;;;;;;7.88;5.57;;;;;;;;;;5066246;28;20080;-78
2023/04/10 07:27:47;;;;;;;8.07;5.13;;;;;;;;;;5068894;28;20036;-79
2023/04/10 07:30:12;;;;;;;7.18;4.30;;;;;;;;;;5066920;28;20047;-78
2023/04/10 07:32:39;;;;;;;6.95;5.13;;;;;;;;;;5075202;28;20233;-78
2023/04/10 07:35:05;;;;;;;7.10;5.00;;;;;;;;;;5074011;28;20771;-79
2023/04/10 07:37:30;;;;;;;8.52;5.38;;;;;;;;;;5074170;28;20040;-81
2023/04/10 07:39:56;;;;;;;9.18;4.85;;;;;;;;;;5070406;28;20040;-80
2023/04/10 07:42:21;;;;;;;6.93;4.78;;;;;;;;;;5068378;28;20051;-80
2023/04/10 07:44:47;;;;;;;6.85;4.55;;;;;;;;;;5067519;28;20028;-80
2023/04/10 07:47:12;;;;;;;7.10;4.88;;;;;;;;;;5068271;28;20033;-78
2023/04/10 07:49:38;;;;;;;6.53;4.70;;;;;;;;;;5068647;28;20126;-78
2023/04/10 07:52:03;;;;;;;7.22;4.85;;;;;;;;;;5066866;28;20079;-79
2023/04/10 07:54:33;;;;;;;8.63;4.45;;;;;;;;;;5067290;28;20396;-79
2023/04/10 07:56:59;;;;;;;6.38;4.70;;;;;;;;;;5062419;28;20136;-78
2023/04/10 07:59:25;;;;;;;7.43;5.00;;;;;;;;;;5067930;28;20087;-77
2023/04/10 08:01:51;;;;;;;7.45;5.10;;;;;;;;;;5065027;28;20088;-79
2023/04/10 08:04:16;;;;;;;7.57;5.32;;;;;;;;;;5064630;28;20112;-79
2023/04/10 08:06:41;;;;;;;5.47;4.30;;;;;;;;;;5065703;28;20036;-78
2023/04/10 08:09:07;;;;;;;6.25;4.50;;;;;;;;;;5071808;28;20836;-80
2023/04/10 08:11:33;;;;;;;7.15;4.38;;;;;;;;;;5069594;28;20032;-80
2023/04/10 08:14:01;;;;;;;6.00;4.60;;;;;;;;;;5065833;28;20044;-80
2023/04/10 08:16:28;;;;;;;5.75;4.25;;;;;;;;;;5071628;28;20040;-80
2023/04/10 08:18:55;;;;;;;5.82;4.15;;;;;;;;;;5079576;28;20044;-79
2023/04/10 08:21:21;;;;;;;4.88;4.00;;;;;;;;;;5078006;28;20032;-80
2023/04/10 08:23:52;;;;;;;4.60;3.75;;;;;;;;;;5076141;28;20159;-79
2023/04/10 08:26:18;;;;;;;5.97;4.07;;;;;;;;;;5073234;28;20059;-81
2023/04/10 08:28:48;;;;;;;4.70;3.53;;;;;;;;;;5077999;28;20776;-81
2023/04/10 08:31:13;;;;;;;6.70;4.03;;;;;;;;;;5077352;28;20028;-81
2023/04/10 08:33:39;;;;;;;5.30;3.97;;;;;;;;;;5075505;28;20028;-79
2023/04/10 08:36:05;;;;;;;6.15;3.92;;;;;;;;;;5077748;28;20599;-79
2023/04/10 08:38:30;;;;;;;6.70;3.60;;;;;;;;;;5077572;28;20049;-80
2023/04/10 08:40:56;;;;;;;4.63;3.70;;;;;;;;;;5067728;28;20066;-80
2023/04/10 08:43:22;;;;;;;4.72;2.92;;;;;;;;;;5087408;28;20036;-79
2023/04/10 08:45:47;;;;;;;4.43;3.20;;;;;;;;;;5070698;28;20028;-79
2023/04/10 08:48:15;;;;;;;4.75;3.35;;;;;;;;;;5071515;28;20137;-81
2023/04/10 08:50:44;;;;;;;4.75;3.33;;;;;;;;;;5073776;28;20040;-81
2023/04/10 08:53:14;;;;;;;6.28;3.25;;;;;;;;;;5069125;28;20025;-81
2023/04/10 08:55:40;;;;;;;4.85;3.45;;;;;;;;;;5065997;28;20016;-81
2023/04/10 08:58:06;;;;;;;4.75;3.08;;;;;;;;;;5067552;28;20032;-84
2023/04/10 09:00:37;;;;;;;4.07;3.00;;;;;;;;;;5070017;28;20534;-80
2023/04/10 09:03:07;;;;;;;3.83;2.65;;;;;;;;;;5069263;28;20064;-82
2023/04/10 09:05:34;;;;;;;4.10;2.90;;;;;;;;;;5066546;28;20021;-80
2023/04/10 09:07:59;;;;;;;3.58;2.47;;;;;;;;;;5074625;28;20032;-82
2023/04/10 09:10:25;;;;;;;3.95;2.60;;;;;;;;;;5073308;28;20029;-81
2023/04/10 09:12:51;;;;;;;3.38;2.70;;;;;;;;;;5069096;28;20044;-81
2023/04/10 09:15:16;;;;;;;4.20;2.50;;;;;;;;;;5069012;28;20047;-81
2023/04/10 09:18:01;;;;;;;3.35;2.63;;;;;;;;;;5084447;28;20404;-81
2023/04/10 09:20:29;;;;;;;4.10;2.72;;;;;;;;;;5079588;28;20020;-82
2023/04/10 09:22:55;;;;;;;2.90;2.55;;;;;;;;;;5076572;28;20096;-81
2023/04/10 09:25:40;;;;;;;2.72;2.42;;;;;;;;;;5076583;28;20121;-80
2023/04/10 09:28:07;;;;;;;3.88;2.67;;;;;;;;;;5073586;28;20036;-83
2023/04/10 09:30:38;;;;;;;3.38;2.67;;;;;;;;;;5079083;28;20171;-81
2023/04/10 09:33:21;;;;;;;3.35;2.58;;;;;;;;;;5074007;28;20127;-81
2023/04/10 09:35:47;;;;;;;3.35;2.40;;;;;;;;;;5070137;28;20028;-81
2023/04/10 09:38:20;;;;;;;4.05;2.42;;;;;;;;;;5071906;28;20036;-81
2023/04/10 09:40:47;;;;;;;2.80;2.40;;;;;;;;;;5077950;28;20024;-81
2023/04/10 09:43:20;;;;;;;4.07;2.58;;;;;;;;;;5074382;28;20024;-82
2023/04/10 09:45:51;;;;;;;3.40;2.50;;;;;;;;;;5078929;28;20073;-81
2023/04/10 09:48:17;;;;;;;3.90;2.65;;;;;;;;;;5086582;28;20020;-83
2023/04/10 09:50:42;;;;;;;4.95;2.45;;;;;;;;;;5085319;28;20028;-82
2023/04/10 09:53:11;;;;;;;2.75;2.05;;;;;;;;;;5076031;28;20126;-83
2023/04/10 09:55:36;;;;;;;3.05;2.35;;;;;;;;;;5075572;28;20016;-81
2023/04/10 09:58:03;;;;;;;3.35;2.45;;;;;;;;;;5078491;28;20052;-82
2023/04/10 10:00:28;;;;;;;2.22;2.03;;;;;;;;;;5074238;28;20025;-82
2023/04/10 10:02:55;;;;;;;3.40;2.10;;;;;;;;;;5077023;28;20040;-83
2023/04/10 10:05:22;;;;;;;2.28;1.90;;;;;;;;;;5079480;28;20036;-82
2023/04/10 10:07:48;;;;;;;3.20;2.28;;;;;;;;;;5071748;28;20035;-82
2023/04/10 10:10:13;;;;;;;3.40;2.30;;;;;;;;;;5081218;28;20013;-81
2023/04/10 10:12:50;;;;;;;2.20;2.00;;;;;;;;;;5085251;28;20107;-81
2023/04/10 10:15:25;;;;;;;2.88;2.08;;;;;;;;;;5074107;28;20028;-81
2023/04/10 10:17:59;;;;;;;2.92;1.80;;;;;;;;;;5076880;28;20149;-82
2023/04/10 10:20:25;;;;;;;2.88;2.25;;;;;;;;;;5077431;28;20064;-82
2023/04/10 10:22:52;;;;;;;3.10;2.30;;;;;;;;;;5070392;28;20033;-81
2023/04/10 10:25:19;;;;;;;2.50;2.22;;;;;;;;;;5080712;28;20016;-83
2023/04/10 10:27:46;;;;;;;2.92;2.10;;;;;;;;;;5078327;28;20032;-82
2023/04/10 10:30:13;;;;;;;2.97;2.03;;;;;;;;;;5075685;28;20032;-85
2023/04/10 10:32:40;;;;;;;2.15;1.90;;;;;;;;;;5075145;28;20043;-86
2023/04/10 10:35:09;;;;;;;2.10;1.90;;;;;;;;;;5072520;28;20020;-83
2023/04/10 10:37:36;;;;;;;2.40;1.80;;;;;;;;;;5065276;28;20110;-81
2023/04/10 10:40:18;;;;;;;3.92;2.00;;;;;;;;;;5076243;28;20051;-81
2023/04/10 10:42:56;;;;;;;1.95;1.85;;;;;;;;;;5069837;28;20032;-83
2023/04/10 10:45:32;;;;;;;2.22;1.90;;;;;;;;;;5066262;28;20121;-80
2023/04/10 10:47:57;;;;;;;1.80;1.65;;;;;;;;;;5073819;28;20028;-80
2023/04/10 10:50:23;;;;;;;3.00;1.90;;;;;;;;;;5072489;28;20037;-82
2023/04/10 10:52:51;;;;;;;2.35;2.03;;;;;;;;;;5078893;28;20025;-80
2023/04/10 10:55:38;;;;;;;2.13;1.90;;;;;;;;;;5070318;28;20404;-80
2023/04/10 10:58:07;;;;;;;2.92;1.88;;;;;;;;;;5074297;28;20031;-83
2023/04/10 11:00:51;;;;;;;2.13;1.92;;;;;;;;;;5075494;28;20025;-83
2023/04/10 11:03:16;;;;;;;2.80;2.10;;;;;;;;;;5075248;28;20093;-83
2023/04/10 11:05:57;;;;;;;2.88;2.22;;;;;;;;;;5076729;28;20048;-85
2023/04/10 11:08:34;;;;;;;2.25;1.88;;;;;;;;;;5078800;28;20500;-81
2023/04/10 11:11:07;;;;;;;4.20;2.10;;;;;;;;;;5075994;28;20032;-83
2023/04/10 11:13:35;;;;;;;3.95;1.40;;;;;;;;;;5076285;28;20088;-83
2023/04/10 11:16:02;;;;;;;1.63;1.50;;;;;;;;;;5074824;28;20021;-80
2023/04/10 11:18:45;;;;;;;1.48;1.38;;;;;;;;;;5074198;28;20043;-81
2023/04/10 11:21:19;;;;;;;1.67;1.50;;;;;;;;;;5076320;28;20142;-82
2023/04/10 11:24:05;;;;;;;2.42;1.80;;;;;;;;;;5078500;28;20063;-81
2023/04/10 11:26:42;;;;;;;1.40;1.23;;;;;;;;;;5070598;28;20044;-80
2023/04/10 11:29:16;;;;;;;1.40;1.30;;;;;;;;;;5071848;28;21761;-82
2023/04/10 11:31:59;;;;;;;1.67;1.40;;;;;;;;;;5081735;28;20044;-82
2023/04/10 11:34:26;;;;;;;1.85;1.40;;;;;;;;;;5076545;28;20063;-81
2023/04/10 11:36:52;;;;;;;1.40;1.30;;;;;;;;;;5076213;28;20047;-82
2023/04/10 11:39:19;;;;;;;1.20;1.10;;;;;;;;;;5077234;28;20107;-82
2023/04/10 11:41:46;;;;;;;2.10;1.30;;;;;;;;;;5079018;28;20040;-82
2023/04/10 11:44:17;;;;;;;1.30;1.20;;;;;;;;;;5081906;28;20047;-82
2023/04/10 11:46:46;;;;;;;1.90;1.50;;;;;;;;;;5079888;28;20082;-82
2023/04/10 11:49:35;;;;;;;1.10;1.00;;;;;;;;;;5080459;28;20036;-82
2023/04/10 11:52:01;;;;;;;1.35;1.20;;;;;;;;;;5062692;28;20053;-81
2023/04/10 11:54:28;;;;;;;0.93;0.90;;;;;;;;;;5074156;28;20020;-80
2023/04/10 11:57:00;;;;;;;1.20;1.10;;;;;;;;;;5080737;28;20116;-79
2023/04/10 11:59:27;;;;;;;2.55;1.20;;;;;;;;;;5079936;28;20048;-81
2023/04/10 12:02:01;;;;;;;1.67;1.30;;;;;;;;;;5069622;28;20017;-80
2023/04/10 12:04:27;;;;;;;1.10;1.10;;;;;;;;;;5079244;28;20084;-81
2023/04/10 12:06:55;;;;;;;1.08;1.00;;;;;;;;;;5077268;28;20056;-82
2023/04/10 12:09:21;;;;;;;1.33;1.23;;;;;;;;;;5080509;28;20031;-81
2023/04/10 12:11:52;;;;;;;1.27;1.17;;;;;;;;;;5078177;28;20037;-82
2023/04/10 12:14:19;;;;;;;1.15;1.05;;;;;;;;;;5080231;28;20190;-82
2023/04/10 12:16:45;;;;;;;2.25;1.20;;;;;;;;;;5089936;28;20038;-79
2023/04/10 12:19:11;;;;;;;0.93;0.93;;;;;;;;;;5085259;28;20031;-79
2023/04/10 12:21:39;;;;;;;1.00;1.00;;;;;;;;;;5082740;28;20028;-81
2023/04/10 12:24:05;;;;;;;1.58;1.20;;;;;;;;;;5079671;28;20033;-81
2023/04/10 12:26:30;;;;;;;1.30;1.20;;;;;;;;;;5081860;28;20108;-80
2023/04/10 12:28:57;;;;;;;1.35;1.15;;;;;;;;;;5077818;28;20025;-80
2023/04/10 12:31:30;;;;;;;0.90;0.90;;;;;;;;;;5083692;28;20046;-79
2023/04/10 12:33:56;;;;;;;0.90;0.90;;;;;;;;;;5076035;28;20044;-79
2023/04/10 12:36:28;;;;;;;1.10;1.00;;;;;;;;;;5077913;28;20036;-82
2023/04/10 12:38:54;;;;;;;;;;;;;;;;;;5079546;28;20020;-79
2023/04/10 12:41:22;;;;;;;1.00;1.00;;;;;;;;;;5075122;28;20360;-82
2023/04/10 12:43:48;;;;;;;1.38;1.27;;;;;;;;;;5081669;28;20024;-81
2023/04/10 12:46:25;;;;;;;0.82;0.82;;;;;;;;;;5081749;28;21883;-80
2023/04/10 12:48:51;;;;;;;0.88;0.88;;;;;;;;;;5081527;28;20106;-82
2023/04/10 12:51:17;;;;;;;0.60;0.60;;;;;;;;;;5081249;28;20024;-81
2023/04/10 12:53:45;;;;;;;1.15;0.98;;;;;;;;;;5072628;28;20089;-81
2023/04/10 12:56:12;;;;;;;1.10;0.60;;;;;;;;;;5072806;28;20024;-80
2023/04/10 12:58:38;;;;;;;1.08;0.95;;;;;;;;;;5078874;28;20115;-82
2023/04/10 13:01:05;;;;;;;0.63;0.63;;;;;;;;;;5078530;28;20052;-80
2023/04/10 13:03:35;;;;;;;0.60;0.60;;;;;;;;;;5080434;28;20100;-81
2023/04/10 13:06:02;;;;;;;1.33;0.98;;;;;;;;;;5077629;28;20016;-81
2023/04/10 13:08:27;;;;;;;0.77;0.77;;;;;;;;;;5077687;28;20089;-81
2023/04/10 13:10:53;;;;;;;1.88;1.23;;;;;;;;;;5076703;28;20067;-81
2023/04/10 13:13:19;;;;;;;1.13;1.00;;;;;;;;;;5074324;28;20469;-81
2023/04/10 13:15:44;;;;;;;3.95;1.50;;;;;;;;;;5075940;28;20031;-81
2023/04/10 13:18:10;;;;;;;3.92;1.52;;;;;;;;;;5079296;28;20029;-81
2023/04/10 13:20:39;;;;;;;1.60;1.15;;;;;;;;;;5078812;28;20043;-81
2023/04/10 13:23:06;;;;;;;1.20;1.10;;;;;;;;;;5077602;28;20041;-82
2023/04/10 13:25:34;;;;;;;0.70;0.70;;;;;;;;;;5081387;28;20037;-81
2023/04/10 13:28:00;;;;;;;1.17;0.85;;;;;;;;;;5079195;28;20020;-82
2023/04/10 13:30:26;;;;;;;1.05;0.80;;;;;;;;;;5078881;28;20043;-81
2023/04/10 13:32:52;;;;;;;1.05;0.95;;;;;;;;;;5079462;28;20074;-82
2023/04/10 13:35:17;;;;;;;0.82;0.82;;;;;;;;;;5080826;28;20074;-82
2023/04/10 13:37:44;;;;;;;1.17;1.10;;;;;;;;;;5079766;28;20107;-82
2023/04/10 13:40:10;;;;;;;0.85;0.85;;;;;;;;;;5077722;28;20020;-82
2023/04/10 13:42:35;;;;;;;1.00;1.00;;;;;;;;;;5079874;28;20035;-81
2023/04/10 13:45:01;;;;;;;1.95;1.00;;;;;;;;;;5079958;28;20052;-83
2023/04/10 13:47:26;;;;;;;0.90;0.90;;;;;;;;;;5079834;28;20024;-81
2023/04/10 13:49:51;;;;;;;0.90;0.90;;;;;;;;;;5073053;28;20056;-81
2023/04/10 13:52:17;;;;;;;0.80;0.80;;;;;;;;;;5081967;28;20081;-82
2023/04/10 13:54:42;;;;;;;1.55;0.80;;;;;;;;;;5079601;28;20536;-82
2023/04/10 13:57:07;;;;;;;1.20;1.10;;;;;;;;;;5080862;28;20029;-82
2023/04/10 13:59:33;;;;;;;1.25;1.13;;;;;;;;;;5079061;28;20431;-82
2023/04/10 14:01:58;;;;;;;1.33;1.23;;;;;;;;;;5081753;28;20028;-81
2023/04/10 14:04:24;;;;;;;1.33;1.15;;;;;;;;;;5077891;28;20024;-81
2023/04/10 14:06:50;;;;;;;1.48;1.38;;;;;;;;;;5080881;28;20028;-81
2023/04/10 14:09:16;;;;;;;1.10;1.00;;;;;;;;;;5086025;28;20034;-81
2023/04/10 14:11:41;;;;;;;1.08;1.00;;;;;;;;;;5085492;28;20048;-83
2023/04/10 14:14:06;;;;;;;1.08;1.08;;;;;;;;;;5084996;28;20021;-81
2023/04/10 14:16:32;;;;;;;1.15;1.10;;;;;;;;;;5082419;28;20115;-81
2023/04/10 14:18:57;;;;;;;1.17;1.08;;;;;;;;;;5082143;28;20016;-80
2023/04/10 14:21:22;;;;;;;1.10;1.10;;;;;;;;;;5078368;28;20043;-82
2023/04/10 14:23:48;;;;;;;1.00;1.00;;;;;;;;;;5080615;28;20123;-83
2023/04/10 14:26:13;;;;;;;1.17;0.95;;;;;;;;;;5075852;28;20013;-80
2023/04/10 14:28:38;;;;;;;0.93;0.93;;;;;;;;;;5076275;28;20044;-80
2023/04/10 14:31:05;;;;;;;1.15;1.02;;;;;;;;;;5078605;28;20044;-81
2023/04/10 14:33:30;;;;;;;1.30;1.20;;;;;;;;;;5075467;28;20099;-80
2023/04/10 14:35:55;;;;;;;3.92;3.10;;;;;;;;;;5074848;28;20035;-80
2023/04/10 14:38:21;;;;;;;1.58;1.10;;;;;;;;;;5076993;28;20115;-81
2023/04/10 14:40:48;;;;;;;1.25;1.13;;;;;;;;;;5074216;28;20031;-80